Time;durP1;ratioP1;P1;durP2;ratioP2;P2;SDS_P1;SDS_P2;PMS_P1;PMS_P2;Temp;Humidity;BMP_temperature;BMP_pressure;BME280_temperature;BME280_humidity;BME280_pressure;Samples;Min_cycle;Max_cycle;Signal;HPM_P1;HPM_P2
2021/03/10 00:00:55;;;;;;;21.50;11.03;;;;;;;0.80;55.85;100927.31;5022705;28;20060;-69
2021/03/10 00:03:21;;;;;;;21.23;12.53;;;;;;;0.71;56.00;100937.38;5027490;28;20034;-68
2021/03/10 00:05:46;;;;;;;21.73;13.37;;;;;;;0.55;56.67;100933.25;5019274;28;20069;-68
2021/03/10 00:08:12;;;;;;;21.83;12.33;;;;;;;0.36;57.53;100933.31;5021700;28;20038;-69
2021/03/10 00:10:37;;;;;;;23.17;13.20;;;;;;;0.28;57.55;100935.59;5022875;28;20033;-69
2021/03/10 00:13:03;;;;;;;23.97;12.87;;;;;;;0.26;57.33;100936.34;5021495;28;20103;-68
2021/03/10 00:15:28;;;;;;;20.03;12.20;;;;;;;0.27;57.16;100940.72;5017946;28;20073;-69
2021/03/10 00:17:53;;;;;;;19.90;12.07;;;;;;;0.25;56.58;100935.47;5019397;28;20085;-69
2021/03/10 00:20:19;;;;;;;24.07;14.23;;;;;;;0.25;56.99;100940.66;5022498;28;20049;-68
2021/03/10 00:22:44;;;;;;;21.13;11.97;;;;;;;0.11;58.75;100941.81;5022664;28;20029;-68
2021/03/10 00:25:10;;;;;;;20.93;12.57;;;;;;;0.02;58.57;100943.97;5020395;28;20052;-69
2021/03/10 00:27:36;;;;;;;23.97;14.27;;;;;;;-0.01;58.56;100945.63;5023061;28;20437;-68
2021/03/10 00:30:05;;;;;;;22.33;12.33;;;;;;;0.03;57.97;100945.75;5023779;28;20061;-68
2021/03/10 00:32:30;;;;;;;25.47;15.30;;;;;;;0.00;58.29;100949.13;5026091;28;20488;-68
2021/03/10 00:34:57;;;;;;;23.17;13.67;;;;;;;-0.05;58.40;100942.84;5026059;28;20072;-68
2021/03/10 00:37:23;;;;;;;23.17;12.47;;;;;;;-0.14;58.54;100945.91;5022769;28;20036;-68
2021/03/10 00:39:49;;;;;;;20.00;12.07;;;;;;;-0.25;58.07;100942.84;5022784;28;20034;-68
2021/03/10 00:42:15;;;;;;;21.00;12.40;;;;;;;-0.31;58.41;100944.31;5025321;28;20033;-69
2021/03/10 00:44:41;;;;;;;18.70;11.73;;;;;;;-0.40;59.26;100938.69;5024957;28;20060;-68
2021/03/10 00:47:08;;;;;;;26.10;14.20;;;;;;;-0.48;59.64;100944.41;5024074;28;20033;-69
2021/03/10 00:49:34;;;;;;;19.27;11.43;;;;;;;-0.53;58.78;100937.25;5022515;28;20029;-68
2021/03/10 00:51:59;;;;;;;21.97;13.67;;;;;;;-0.65;60.28;100945.38;5022960;28;20125;-69
2021/03/10 00:54:24;;;;;;;19.67;10.87;;;;;;;-0.75;60.33;100932.81;5025885;28;20087;-68
2021/03/10 00:56:51;;;;;;;25.27;13.87;;;;;;;-0.81;60.53;100940.28;5025640;28;20447;-69
2021/03/10 00:59:16;;;;;;;20.73;11.90;;;;;;;-0.96;63.47;100943.06;5022879;28;20084;-69
2021/03/10 01:01:41;;;;;;;20.83;11.50;;;;;;;-1.09;62.00;100931.25;5022127;28;20404;-68
2021/03/10 01:04:07;;;;;;;24.07;12.60;;;;;;;-1.10;61.57;100934.66;5023808;28;20455;-68
2021/03/10 01:06:32;;;;;;;25.10;13.97;;;;;;;-1.08;62.33;100932.13;5025313;28;20102;-69
2021/03/10 01:08:57;;;;;;;27.10;14.60;;;;;;;-1.06;61.81;100928.78;5025215;28;20075;-68
2021/03/10 01:11:23;;;;;;;23.10;13.20;;;;;;;-1.06;61.16;100931.38;5022027;28;20092;-68
2021/03/10 01:13:48;;;;;;;24.03;14.37;;;;;;;-1.06;62.16;100927.91;5022094;28;20038;-68
2021/03/10 01:16:14;;;;;;;23.50;14.03;;;;;;;-1.08;61.62;100926.94;5023647;28;20378;-68
2021/03/10 01:18:40;;;;;;;22.20;12.40;;;;;;;-1.11;61.93;100930.28;5027314;28;20052;-68
2021/03/10 01:21:05;;;;;;;19.43;10.97;;;;;;;-1.17;61.95;100927.41;5033015;28;20032;-68
2021/03/10 01:23:31;;;;;;;27.77;15.20;;;;;;;-1.27;62.12;100927.78;5035078;28;20495;-68
2021/03/10 01:25:56;;;;;;;22.60;13.33;;;;;;;-1.37;61.99;100929.91;5033007;28;20381;-69
2021/03/10 01:28:22;;;;;;;27.30;14.37;;;;;;;-1.40;62.86;100927.19;5033267;28;20037;-68
2021/03/10 01:30:48;;;;;;;19.97;12.33;;;;;;;-1.45;62.10;100926.06;5033385;28;20395;-68
2021/03/10 01:33:14;;;;;;;24.03;13.80;;;;;;;-1.50;62.83;100917.19;5024827;28;20120;-68
2021/03/10 01:35:39;;;;;;;19.50;10.73;;;;;;;-1.55;61.80;100927.34;5024923;28;20045;-69
2021/03/10 01:38:05;;;;;;;19.57;10.93;;;;;;;-1.59;62.18;100927.13;5023160;28;20099;-68
2021/03/10 01:40:32;;;;;;;24.00;12.43;;;;;;;-1.63;61.72;100925.19;5021587;28;20129;-68
2021/03/10 01:43:05;;;;;;;19.53;11.50;;;;;;;-1.66;63.17;100927.63;5021756;28;20038;-68
2021/03/10 01:45:31;;;;;;;20.50;11.23;;;;;;;-1.71;61.94;100929.09;5024554;28;20037;-68
2021/03/10 01:47:58;;;;;;;22.80;13.10;;;;;;;-1.81;61.95;100923.47;5026144;28;20041;-69
2021/03/10 01:50:26;;;;;;;26.50;13.63;;;;;;;-1.85;62.98;100926.72;5032907;28;20029;-68
2021/03/10 01:52:54;;;;;;;20.10;12.30;;;;;;;-1.91;62.03;100922.91;5024599;28;20124;-68
2021/03/10 01:55:19;;;;;;;21.37;11.67;;;;;;;-1.99;62.52;100917.38;5021177;28;20041;-68
2021/03/10 01:57:45;;;;;;;23.13;12.80;;;;;;;-1.98;61.99;100917.44;5021361;28;20037;-68
2021/03/10 02:00:11;;;;;;;19.23;11.47;;;;;;;-2.03;62.70;100913.72;5023185;28;20030;-68
2021/03/10 02:02:40;;;;;;;20.73;11.87;;;;;;;-2.10;62.76;100918.50;5024376;28;20100;-68
2021/03/10 02:05:08;;;;;;;24.07;12.67;;;;;;;-2.12;63.03;100922.72;5022914;28;20117;-69
2021/03/10 02:07:57;;;;;;;22.03;12.63;;;;;;;-2.13;63.09;100927.00;5021161;28;20096;-68
2021/03/10 02:10:48;;;;;;;19.73;12.30;;;;;;;-2.17;63.49;100919.91;5021017;28;20396;-68
2021/03/10 02:13:18;;;;;;;21.43;11.73;;;;;;;-2.21;62.99;100921.44;5023350;28;20030;-68
2021/03/10 02:16:01;;;;;;;22.03;11.37;;;;;;;-2.30;63.90;100923.56;5024148;28;20044;-68
2021/03/10 02:18:42;;;;;;;21.73;12.23;;;;;;;-2.38;64.34;100918.78;5020820;28;20034;-68
2021/03/10 02:21:24;;;;;;;21.00;11.53;;;;;;;-2.45;63.61;100923.66;5022325;28;20034;-68
2021/03/10 02:24:02;;;;;;;21.65;11.77;;;;;;;-2.42;64.62;100925.50;5024240;28;20051;-68
2021/03/10 02:26:48;;;;;;;19.60;10.43;;;;;;;-2.52;64.43;100921.53;5020520;28;20041;-68
2021/03/10 02:29:14;;;;;;;26.50;14.53;;;;;;;-2.51;64.23;100919.88;5023049;28;20041;-68
2021/03/10 02:31:50;;;;;;;22.50;13.30;;;;;;;-2.52;64.36;100910.31;5023982;28;20041;-68
2021/03/10 02:34:18;;;;;;;21.70;11.63;;;;;;;-2.52;64.90;100915.50;5021270;28;20103;-68
2021/03/10 02:36:46;;;;;;;22.40;12.30;;;;;;;-2.60;64.50;100916.78;5020306;28;20038;-68
2021/03/10 02:39:12;;;;;;;24.60;13.33;;;;;;;-2.73;63.95;100920.41;5022717;28;20040;-68
2021/03/10 02:41:38;;;;;;;26.60;13.47;;;;;;;-2.80;63.93;100918.28;5023725;28;20033;-68
2021/03/10 02:44:04;;;;;;;20.37;11.73;;;;;;;-2.78;64.40;100917.56;5022595;28;20038;-68
2021/03/10 02:46:31;;;;;;;23.30;12.37;;;;;;;-2.77;65.23;100913.31;5020068;28;20049;-68
2021/03/10 02:48:57;;;;;;;22.40;12.13;;;;;;;-2.82;65.00;100922.53;5019897;28;20076;-68
2021/03/10 02:51:23;;;;;;;25.57;14.40;;;;;;;-2.80;65.69;100923.47;5023294;28;20048;-68
2021/03/10 02:53:50;;;;;;;23.93;14.00;;;;;;;-2.78;65.77;100927.03;5023611;28;20030;-68
2021/03/10 02:56:16;;;;;;;23.90;14.60;;;;;;;-2.75;64.75;100924.59;5020556;28;20147;-68
2021/03/10 02:58:42;;;;;;;26.60;13.87;;;;;;;-2.79;65.66;100928.72;5020212;28;20471;-68
2021/03/10 03:01:08;;;;;;;22.77;12.67;;;;;;;-2.77;65.92;100929.69;5021530;28;20030;-68
2021/03/10 03:03:33;;;;;;;21.43;12.50;;;;;;;-2.77;65.85;100919.38;5023470;28;20029;-68
2021/03/10 03:05:58;;;;;;;27.67;15.40;;;;;;;-2.76;66.18;100920.25;5022859;28;20599;-68
2021/03/10 03:08:25;;;;;;;23.20;13.77;;;;;;;-2.73;66.03;100923.00;5019968;28;20116;-68
2021/03/10 03:10:52;;;;;;;23.97;14.73;;;;;;;-2.71;65.42;100923.97;5019963;28;20124;-68
2021/03/10 03:13:18;;;;;;;26.03;14.37;;;;;;;-2.71;65.41;100929.13;5022851;28;20756;-68
2021/03/10 03:15:45;;;;;;;25.50;14.20;;;;;;;-2.72;65.39;100922.22;5023189;28;20095;-68
2021/03/10 03:18:11;;;;;;;21.00;12.57;;;;;;;-2.74;65.45;100923.81;5021266;28;20049;-68
2021/03/10 03:20:37;;;;;;;27.20;14.70;;;;;;;-2.75;66.51;100932.34;5019859;28;20057;-68
2021/03/10 03:23:04;;;;;;;24.00;13.40;;;;;;;-2.75;66.33;100930.69;5020618;28;20030;-68
2021/03/10 03:25:34;;;;;;;22.60;12.70;;;;;;;-2.76;66.59;100934.06;5022840;28;20180;-69
2021/03/10 03:28:01;;;;;;;24.50;13.43;;;;;;;-2.76;65.72;100936.63;5023050;28;20404;-68
2021/03/10 03:30:31;;;;;;;22.80;13.77;;;;;;;-2.77;66.29;100942.63;5019710;28;20045;-68
2021/03/10 03:32:57;;;;;;;22.70;12.73;;;;;;;-2.80;66.69;100939.88;5022233;28;20046;-68
2021/03/10 03:35:23;;;;;;;22.20;13.83;;;;;;;-2.84;66.24;100940.50;5027432;28;20136;-68
2021/03/10 03:37:51;;;;;;;22.93;13.10;;;;;;;-2.87;66.10;100941.22;5019611;28;20481;-69
2021/03/10 03:40:18;;;;;;;22.23;12.27;;;;;;;-2.88;66.62;100938.56;5022392;28;20068;-69
2021/03/10 03:42:44;;;;;;;23.83;13.53;;;;;;;-2.94;66.13;100939.09;5022910;28;20403;-68
2021/03/10 03:45:09;;;;;;;31.60;17.60;;;;;;;-3.06;65.93;100938.47;5020689;28;20034;-69
2021/03/10 03:47:36;;;;;;;25.63;14.23;;;;;;;-3.07;66.34;100928.91;5019509;28;20037;-68
2021/03/10 03:50:03;;;;;;;25.40;14.47;;;;;;;-3.03;66.50;100937.75;5020432;28;20419;-68
2021/03/10 03:52:28;;;;;;;24.57;14.20;;;;;;;-3.02;66.14;100934.34;5022766;28;20034;-68
2021/03/10 03:54:53;;;;;;;24.50;13.83;;;;;;;-3.01;66.04;100928.34;5022818;28;20096;-68
2021/03/10 03:57:19;;;;;;;26.80;13.70;;;;;;;-3.03;66.13;100938.63;5019514;28;20048;-69
2021/03/10 03:59:44;;;;;;;23.93;12.53;;;;;;;-3.06;66.94;100945.31;5019456;28;20044;-68
2021/03/10 04:02:10;;;;;;;26.20;13.07;;;;;;;-3.11;66.01;100943.34;5024369;28;20058;-68
2021/03/10 04:04:35;;;;;;;24.50;13.83;;;;;;;-3.06;66.99;100950.50;5026702;28;20033;-68
2021/03/10 04:07:02;;;;;;;23.67;12.53;;;;;;;-3.00;66.48;100951.69;5025767;28;20410;-69
2021/03/10 04:09:27;;;;;;;26.00;14.50;;;;;;;-2.97;66.76;100956.13;5025595;28;20095;-68
2021/03/10 04:11:53;;;;;;;26.43;14.17;;;;;;;-3.05;68.57;100952.25;5026527;28;20025;-68
2021/03/10 04:14:19;;;;;;;24.67;14.03;;;;;;;-3.09;68.76;100954.66;5026557;28;20493;-68
2021/03/10 04:16:45;;;;;;;27.67;14.40;;;;;;;-3.10;68.79;100955.44;5026227;28;20045;-68
2021/03/10 04:19:11;;;;;;;28.17;15.67;;;;;;;-3.02;69.24;100952.41;5024417;28;20044;-68
2021/03/10 04:21:37;;;;;;;24.00;13.80;;;;;;;-3.00;68.04;100955.97;5023065;28;20046;-68
2021/03/10 04:24:03;;;;;;;25.43;14.47;;;;;;;-3.01;68.14;100952.50;5023792;28;20034;-68
2021/03/10 04:26:28;;;;;;;31.53;15.37;;;;;;;-2.96;68.90;100958.81;5026384;28;20065;-68
2021/03/10 04:28:53;;;;;;;27.23;14.90;;;;;;;-2.97;69.28;100954.44;5026301;28;20120;-68
2021/03/10 04:31:19;;;;;;;24.33;13.70;;;;;;;-2.95;68.12;100960.59;5022989;28;20045;-68
2021/03/10 04:33:44;;;;;;;23.77;13.87;;;;;;;-2.90;68.35;100955.69;5022909;28;20117;-68
2021/03/10 04:36:10;;;;;;;28.60;15.03;;;;;;;-2.87;67.41;100953.25;5024494;28;20041;-68
2021/03/10 04:38:35;;;;;;;31.30;15.57;;;;;;;-2.83;67.56;100955.19;5026125;28;20041;-68
2021/03/10 04:41:01;;;;;;;27.57;15.13;;;;;;;-2.82;66.88;100956.97;5025322;28;20048;-68
2021/03/10 04:43:27;;;;;;;28.37;16.33;;;;;;;-2.86;67.27;100955.03;5022721;28;20034;-68
2021/03/10 04:45:53;;;;;;;28.70;15.83;;;;;;;-2.89;67.43;100960.03;5022394;28;20503;-69
2021/03/10 04:48:18;;;;;;;28.17;15.00;;;;;;;-2.86;68.31;100960.19;5025613;28;20087;-68
2021/03/10 04:50:44;;;;;;;24.67;14.17;;;;;;;-2.79;67.95;100964.88;5025876;28;20040;-69
2021/03/10 04:53:09;;;;;;;26.27;13.70;;;;;;;-2.79;67.51;100956.25;5023776;28;20033;-69
2021/03/10 04:55:34;;;;;;;26.63;13.57;;;;;;;-2.76;66.88;100969.34;5022255;28;20543;-69
2021/03/10 04:58:00;;;;;;;23.17;12.87;;;;;;;-2.76;67.63;100962.47;5022902;28;20463;-68
2021/03/10 05:00:25;;;;;;;29.70;14.17;;;;;;;-2.75;67.15;100969.44;5025665;28;20029;-69
2021/03/10 05:02:51;;;;;;;23.00;12.73;;;;;;;-2.74;67.04;100970.31;5025595;28;20057;-68
2021/03/10 05:05:16;;;;;;;25.90;13.77;;;;;;;-2.75;67.31;100978.84;5022651;28;20050;-69
2021/03/10 05:07:42;;;;;;;25.73;15.80;;;;;;;-2.69;67.47;100980.09;5022181;28;20038;-69
2021/03/10 05:10:08;;;;;;;23.13;13.73;;;;;;;-2.67;66.55;100977.59;5023629;28;20034;-69
2021/03/10 05:12:34;;;;;;;29.60;16.40;;;;;;;-2.59;67.79;100975.41;5024212;28;20045;-68
2021/03/10 05:15:00;;;;;;;27.87;15.87;;;;;;;-2.52;67.59;100978.41;5024805;28;20045;-69
2021/03/10 05:17:26;;;;;;;23.00;14.50;;;;;;;-2.44;67.25;100973.63;5022321;28;20030;-69
2021/03/10 05:19:55;;;;;;;23.67;13.37;;;;;;;-2.33;66.35;100982.88;5021919;28;20030;-68
2021/03/10 05:22:21;;;;;;;27.43;14.80;;;;;;;-2.24;66.13;100975.59;5025110;28;20415;-69
2021/03/10 05:24:46;;;;;;;27.37;13.93;;;;;;;-2.15;66.78;100979.44;5025464;28;20542;-69
2021/03/10 05:27:12;;;;;;;25.23;15.07;;;;;;;-2.06;66.12;100991.19;5021570;28;20034;-69
2021/03/10 05:29:38;;;;;;;24.57;14.07;;;;;;;-1.98;66.19;100994.16;5018337;28;20044;-68
2021/03/10 05:32:04;;;;;;;26.50;14.53;;;;;;;-1.95;67.00;101001.19;5029719;28;20033;-69
2021/03/10 05:34:29;;;;;;;24.97;14.27;;;;;;;-1.93;66.80;101002.16;5021713;28;20069;-69
2021/03/10 05:36:54;;;;;;;25.97;14.77;;;;;;;-1.87;66.72;101003.34;5021228;28;20057;-68
2021/03/10 05:39:20;;;;;;;28.70;16.47;;;;;;;-1.88;67.02;101004.19;5024757;28;20488;-68
2021/03/10 05:41:47;;;;;;;26.33;14.30;;;;;;;-1.91;66.95;101001.44;5029548;28;20580;-69
2021/03/10 05:44:13;;;;;;;26.53;13.60;;;;;;;-1.85;66.62;101008.63;5026084;28;20125;-69
2021/03/10 05:46:39;;;;;;;23.47;14.50;;;;;;;-1.82;66.62;101014.81;5024786;28;20369;-69
2021/03/10 05:49:05;;;;;;;26.63;14.20;;;;;;;-1.69;66.55;101018.06;5023632;28;20044;-69
2021/03/10 05:51:31;;;;;;;26.87;14.03;;;;;;;-1.63;66.44;101019.22;5021257;28;20104;-69
2021/03/10 05:54:00;;;;;;;23.37;13.13;;;;;;;-1.56;66.50;101016.16;5021249;28;20488;-69
2021/03/10 05:56:26;;;;;;;23.10;14.03;;;;;;;-1.44;67.26;101017.56;5024701;28;20037;-68
2021/03/10 05:58:56;;;;;;;22.77;12.67;;;;;;;-1.22;66.25;101022.13;5024625;28;20116;-68
2021/03/10 06:01:22;;;;;;;20.80;12.63;;;;;;;-1.10;66.55;101022.75;5021033;28;20041;-67
2021/03/10 06:03:55;;;;;;;24.57;12.73;;;;;;;-1.01;66.22;101025.75;5028764;28;20083;-69
2021/03/10 06:06:20;;;;;;;;;;;;;;;-0.97;65.66;101017.34;5032716;28;20033;-68
2021/03/10 06:08:46;;;;;;;25.63;14.23;;;;;;;-0.85;65.82;101021.31;5032431;28;19992;-68
2021/03/10 06:11:21;;;;;;;40.37;25.53;;;;;;;-0.72;65.73;101026.25;5032372;28;20032;-68
2021/03/10 06:13:46;;;;;;;28.93;16.90;;;;;;;-0.62;65.63;101019.81;5030042;28;20030;-68
2021/03/10 06:16:20;;;;;;;23.30;13.77;;;;;;;-0.56;65.15;101013.19;5030220;28;20510;-68
2021/03/10 06:18:45;;;;;;;25.07;13.47;;;;;;;-0.49;65.05;101012.66;5031823;28;20124;-68
2021/03/10 06:21:16;;;;;;;25.90;14.97;;;;;;;-0.40;64.73;101019.97;5032164;28;20120;-68
2021/03/10 06:23:51;;;;;;;21.03;12.97;;;;;;;-0.33;64.09;101021.16;5032170;28;20552;-68
2021/03/10 06:26:28;;;;;;;26.00;14.47;;;;;;;-0.27;64.45;101024.00;5023902;28;20095;-68
2021/03/10 06:28:54;;;;;;;22.80;14.53;;;;;;;-0.18;63.86;101021.84;5031969;28;20045;-68
2021/03/10 06:31:22;;;;;;;24.97;13.83;;;;;;;-0.12;63.58;101016.03;5024006;28;20033;-68
2021/03/10 06:34:05;;;;;;;27.00;16.83;;;;;;;-0.10;63.83;101014.41;5022634;28;20523;-68
2021/03/10 06:36:48;;;;;;;32.13;17.93;;;;;;;-0.19;63.98;101009.69;5020218;28;20451;-68
2021/03/10 06:39:24;;;;;;;27.47;16.90;;;;;;;-0.12;64.76;101016.94;5026184;28;20049;-68
2021/03/10 06:41:49;;;;;;;22.07;14.57;;;;;;;-0.08;63.32;101023.13;5031815;28;20043;-68
2021/03/10 06:44:22;;;;;;;24.23;14.33;;;;;;;-0.11;64.21;101023.88;5021263;28;20037;-68
2021/03/10 06:46:50;;;;;;;;;;;;;;;-0.24;65.00;101030.25;5020554;28;20427;-68
2021/03/10 06:49:16;;;;;;;25.30;14.17;;;;;;;-0.28;64.44;101036.09;5023939;28;19913;-68
2021/03/10 06:51:51;;;;;;;23.63;14.07;;;;;;;-0.29;65.22;101028.22;5031603;28;20111;-68
2021/03/10 06:54:16;;;;;;;20.27;12.30;;;;;;;-0.33;64.78;101039.31;5023677;28;20546;-68
2021/03/10 06:56:42;;;;;;;22.77;12.93;;;;;;;-0.36;65.53;101037.47;5023396;28;20053;-68
2021/03/10 06:59:07;;;;;;;23.50;12.50;;;;;;;-0.34;64.93;101029.72;5021931;28;20029;-68
2021/03/10 07:01:37;;;;;;;25.80;14.50;;;;;;;-0.36;64.79;101031.38;5019969;28;20045;-68
2021/03/10 07:04:03;;;;;;;26.87;16.50;;;;;;;-0.29;65.10;101033.41;5020867;28;20476;-68
2021/03/10 07:06:30;;;;;;;27.73;14.03;;;;;;;-0.26;65.31;101038.78;5023186;28;20542;-68
2021/03/10 07:08:56;;;;;;;28.53;15.33;;;;;;;-0.22;65.56;101040.69;5023397;28;20041;-68
2021/03/10 07:11:22;;;;;;;24.10;12.67;;;;;;;-0.16;65.18;101035.75;5019937;28;20037;-68
2021/03/10 07:13:49;;;;;;;28.57;14.77;;;;;;;-0.11;65.81;101043.75;5019906;28;20484;-68
2021/03/10 07:16:14;;;;;;;20.40;12.07;;;;;;;-0.11;65.60;101041.16;5022117;28;20034;-68
2021/03/10 07:18:40;;;;;;;27.53;13.20;;;;;;;-0.06;65.00;101042.25;5023336;28;20553;-68
2021/03/10 07:21:08;;;;;;;23.13;13.63;;;;;;;-0.06;65.42;101043.13;5021864;28;20411;-68
2021/03/10 07:23:40;;;;;;;24.13;15.17;;;;;;;-0.06;64.88;101053.50;5019829;28;20091;-68
2021/03/10 07:26:07;;;;;;;21.70;13.93;;;;;;;-0.06;65.59;101050.91;5020861;28;20492;-68
2021/03/10 07:28:35;;;;;;;21.10;12.77;;;;;;;-0.06;65.17;101050.91;5023299;28;20033;-68
2021/03/10 07:31:00;;;;;;;20.67;12.70;;;;;;;0.01;65.42;101051.22;5022459;28;20106;-68
2021/03/10 07:33:25;;;;;;;23.03;13.73;;;;;;;0.04;65.42;101048.75;5019610;28;20555;-68
2021/03/10 07:35:58;;;;;;;24.07;14.33;;;;;;;0.08;65.54;101045.44;5018992;28;20034;-68
2021/03/10 07:38:36;;;;;;;24.92;13.57;;;;;;;0.17;65.63;101057.13;5019768;28;20050;-68
2021/03/10 07:41:09;;;;;;;23.93;14.20;;;;;;;0.25;65.38;101052.28;5027615;28;20399;-68
2021/03/10 07:43:46;;;;;;;25.40;14.60;;;;;;;0.31;65.97;101062.94;5031114;28;20037;-68
2021/03/10 07:46:24;;;;;;;27.17;16.40;;;;;;;0.40;65.53;101065.94;5029945;28;20064;-68
2021/03/10 07:48:50;;;;;;;25.70;15.20;;;;;;;0.51;65.30;101069.00;5026844;28;20037;-68
2021/03/10 07:51:39;;;;;;;23.40;14.20;;;;;;;0.62;65.43;101067.75;5020261;28;20087;-68
2021/03/10 07:54:19;;;;;;;23.60;14.17;;;;;;;0.73;64.48;101073.38;5020590;28;20092;-68
2021/03/10 07:56:45;;;;;;;22.60;13.83;;;;;;;0.77;65.26;101075.31;5022634;28;20041;-68
2021/03/10 07:59:12;;;;;;;22.17;14.33;;;;;;;0.87;64.75;101074.88;5020901;28;20037;-68
2021/03/10 08:01:38;;;;;;;26.47;15.73;;;;;;;0.96;64.86;101076.06;5019169;28;20077;-68
2021/03/10 08:04:12;;;;;;;24.67;14.93;;;;;;;1.02;64.61;101079.81;5020393;28;20046;-68
2021/03/10 08:06:52;;;;;;;22.43;14.70;;;;;;;1.11;64.14;101076.69;5022632;28;20030;-68
2021/03/10 08:09:19;;;;;;;22.77;13.50;;;;;;;1.23;63.92;101078.91;5020046;28;20034;-68
2021/03/10 08:11:47;;;;;;;22.90;14.40;;;;;;;1.33;63.97;101074.97;5019339;28;20048;-68
2021/03/10 08:14:16;;;;;;;26.67;14.87;;;;;;;1.40;62.81;101079.59;5021437;28;20428;-68
2021/03/10 08:16:49;;;;;;;25.07;15.40;;;;;;;1.46;63.04;101083.31;5022440;28;20124;-68
2021/03/10 08:19:22;;;;;;;23.40;14.43;;;;;;;1.57;62.50;101081.13;5020029;28;20032;-68
2021/03/10 08:21:54;;;;;;;;;;;;;;;1.63;63.04;101083.97;5019712;28;20038;-68
2021/03/10 08:24:21;;;;;;;27.67;16.38;;;;;;;1.73;62.52;101080.91;5022288;28;20000;-68
2021/03/10 08:26:52;;;;;;;26.52;16.08;;;;;;;1.82;61.92;101075.16;5022418;28;20088;-68
2021/03/10 08:29:18;;;;;;;28.05;16.95;;;;;;;1.96;62.19;101075.66;5019667;28;20029;-68
2021/03/10 08:31:55;;;;;;;26.98;16.02;;;;;;;2.08;61.57;101076.13;5019048;28;20034;-68
2021/03/10 08:34:38;;;;;;;24.10;15.60;;;;;;;2.18;61.24;101067.81;5022488;28;20128;-68
2021/03/10 08:37:10;;;;;;;27.67;15.77;;;;;;;2.21;61.39;101072.25;5021524;28;20463;-68
2021/03/10 08:39:43;;;;;;;27.13;15.73;;;;;;;2.31;60.88;101068.28;5019091;28;20041;-68
2021/03/10 08:42:09;;;;;;;25.35;16.45;;;;;;;2.40;60.39;101073.81;5020670;28;20096;-68
2021/03/10 08:44:42;;;;;;;30.15;16.75;;;;;;;2.45;60.65;101072.25;5022426;28;20451;-68
2021/03/10 08:47:13;;;;;;;25.92;17.08;;;;;;;2.50;60.19;101070.69;5020678;28;20033;-68
2021/03/10 08:49:39;;;;;;;25.55;16.67;;;;;;;2.60;60.23;101070.19;5022630;28;20084;-68
2021/03/10 08:52:13;;;;;;;26.80;16.90;;;;;;;2.77;60.23;101070.75;5023417;28;20037;-68
2021/03/10 08:54:54;;;;;;;30.42;18.48;;;;;;;2.91;59.75;101081.66;5024596;28;20551;-68
2021/03/10 08:57:23;;;;;;;25.13;17.58;;;;;;;3.06;60.01;101074.31;5021192;28;20034;-68
2021/03/10 08:59:49;;;;;;;28.13;18.10;;;;;;;3.16;60.22;101079.84;5022239;28;20496;-68
2021/03/10 09:02:15;;;;;;;32.25;20.55;;;;;;;3.26;59.67;101081.94;5023330;28;20041;-68
2021/03/10 09:04:48;;;;;;;30.05;18.52;;;;;;;3.38;59.42;101068.38;5025705;28;20029;-68
2021/03/10 09:07:17;;;;;;;32.53;20.02;;;;;;;3.41;59.16;101061.56;5023095;28;20033;-68
2021/03/10 09:09:44;;;;;;;31.55;20.40;;;;;;;3.53;59.51;101060.16;5022139;28;20483;-68
2021/03/10 09:12:10;;;;;;;58.55;32.60;;;;;;;3.70;60.61;101061.56;5023817;28;20040;-68
2021/03/10 09:15:10;;;;;;;53.83;33.72;;;;;;;3.89;60.90;101057.75;5022580;28;20044;-69
2021/03/10 09:17:37;;;;;;;39.95;25.67;;;;;;;4.02;59.53;101048.56;5008209;28;20053;-69
2021/03/10 09:20:21;;;;;;;37.45;23.45;;;;;;;4.14;58.50;101047.19;5022875;28;20060;-69
2021/03/10 09:22:46;;;;;;;38.28;25.17;;;;;;;4.25;58.19;101051.84;5022166;28;20044;-69
2021/03/10 09:25:28;;;;;;;42.10;25.63;;;;;;;4.42;57.73;101060.13;5021736;28;20041;-69
2021/03/10 09:28:10;;;;;;;41.25;27.38;;;;;;;4.50;56.93;101056.88;5020859;28;20088;-69
2021/03/10 09:30:46;;;;;;;38.28;24.02;;;;;;;4.60;56.00;101061.50;5024056;28;20025;-69
2021/03/10 09:33:23;;;;;;;41.17;24.13;;;;;;;4.62;55.77;101061.53;5021291;28;20037;-69
2021/03/10 09:36:00;;;;;;;31.70;20.92;;;;;;;4.66;55.60;101060.75;5020235;28;20030;-69
2021/03/10 09:38:30;;;;;;;32.88;23.38;;;;;;;4.71;54.75;101069.63;5021562;28;20029;-68
2021/03/10 09:41:03;;;;;;;40.03;25.00;;;;;;;4.79;54.17;101065.50;5020842;28;20040;-68
2021/03/10 09:43:33;;;;;;;36.17;22.52;;;;;;;4.89;54.01;101066.59;5023674;28;20026;-69
2021/03/10 09:46:05;;;;;;;35.20;23.48;;;;;;;4.95;53.82;101068.47;5022619;28;20399;-69
2021/03/10 09:48:33;;;;;;;32.83;22.52;;;;;;;5.05;54.15;101075.72;5020189;28;20030;-69
2021/03/10 09:51:19;;;;;;;35.03;21.73;;;;;;;5.20;53.50;101073.47;5020173;28;20100;-69
2021/03/10 09:53:51;;;;;;;35.40;24.90;;;;;;;5.31;53.38;101065.88;5024983;28;20127;-68
2021/03/10 09:56:25;;;;;;;32.13;22.25;;;;;;;5.49;53.17;101068.94;5030042;28;20038;-69
2021/03/10 09:58:58;;;;;;;34.25;23.90;;;;;;;5.54;52.50;101068.16;5019471;28;20544;-69
2021/03/10 10:01:30;;;;;;;36.15;24.90;;;;;;;5.60;52.10;101068.28;5024352;28;20132;-68
2021/03/10 10:03:58;;;;;;;36.58;24.00;;;;;;;5.69;52.01;101069.41;5023144;28;20488;-68
2021/03/10 10:06:27;;;;;;;37.35;24.67;;;;;;;5.40;50.65;101060.88;5019662;28;20026;-69
2021/03/10 10:08:55;;;;;;;36.95;24.17;;;;;;;5.56;51.75;101066.47;5019742;28;20526;-69
2021/03/10 10:11:26;;;;;;;37.17;26.23;;;;;;;5.64;51.95;101063.16;5023663;28;20084;-69
2021/03/10 10:13:51;;;;;;;37.47;23.80;;;;;;;5.80;51.04;101060.91;5024298;28;20518;-69
2021/03/10 10:16:18;;;;;;;32.97;22.73;;;;;;;5.96;51.25;101063.00;5020024;28;20374;-69
2021/03/10 10:18:46;;;;;;;34.95;24.20;;;;;;;6.12;50.79;101059.84;5019590;28;20030;-69
2021/03/10 10:21:13;;;;;;;31.17;21.33;;;;;;;6.31;50.96;101058.50;5023045;28;20172;-69
2021/03/10 10:23:40;;;;;;;34.70;23.85;;;;;;;6.48;50.74;101052.69;5022870;28;20082;-69
2021/03/10 10:26:11;;;;;;;36.63;24.27;;;;;;;6.62;50.48;101051.19;5020694;28;20068;-69
2021/03/10 10:28:39;;;;;;;39.45;25.65;;;;;;;6.75;50.13;101047.94;5019411;28;20123;-69
2021/03/10 10:31:08;;;;;;;36.70;25.23;;;;;;;6.86;50.39;101048.13;5020719;28;20034;-69
2021/03/10 10:33:36;;;;;;;34.05;24.70;;;;;;;6.89;49.18;101049.91;5022688;28;20059;-69
2021/03/10 10:36:02;;;;;;;33.10;22.73;;;;;;;7.03;49.07;101037.94;5021728;28;20124;-69
2021/03/10 10:38:28;;;;;;;33.70;23.52;;;;;;;7.11;48.21;101040.69;5019312;28;20041;-68
2021/03/10 10:40:57;;;;;;;36.45;24.52;;;;;;;7.33;47.07;101047.13;5019070;28;20088;-69
2021/03/10 10:43:22;;;;;;;31.85;22.55;;;;;;;7.42;47.90;101045.53;5023815;28;20033;-69
2021/03/10 10:45:52;;;;;;;33.95;22.67;;;;;;;7.63;46.89;101039.72;5022305;28;20037;-69
2021/03/10 10:48:19;;;;;;;31.63;23.60;;;;;;;7.82;46.39;101038.22;5019440;28;20042;-68
2021/03/10 10:51:05;;;;;;;33.97;24.58;;;;;;;7.93;45.93;101040.09;5020952;28;20045;-69
2021/03/10 10:53:40;;;;;;;35.05;25.48;;;;;;;8.13;46.01;101034.22;5023564;28;20041;-69
2021/03/10 10:56:05;;;;;;;36.10;25.20;;;;;;;8.04;45.49;101042.00;5020536;28;20124;-69
2021/03/10 10:58:31;;;;;;;34.78;25.00;;;;;;;7.95;45.62;101041.00;5036147;28;20064;-69
2021/03/10 11:00:57;;;;;;;35.70;25.38;;;;;;;7.72;43.70;101036.31;5032590;28;20116;-69
2021/03/10 11:03:23;;;;;;;33.20;24.38;;;;;;;7.97;45.16;101034.03;5022006;28;20470;-69
2021/03/10 11:05:52;;;;;;;28.77;20.98;;;;;;;8.30;44.85;101028.25;5022602;28;20045;-69
2021/03/10 11:08:20;;;;;;;27.77;20.58;;;;;;;8.44;43.46;101025.84;5021811;28;20037;-69
2021/03/10 11:10:46;;;;;;;31.48;23.00;;;;;;;8.54;42.66;101031.22;5022597;28;20040;-69
2021/03/10 11:13:11;;;;;;;32.47;23.05;;;;;;;8.54;42.94;101035.56;5021414;28;20064;-69
2021/03/10 11:15:54;;;;;;;34.75;24.67;;;;;;;8.33;42.95;101029.19;5022331;28;20535;-69
2021/03/10 11:18:33;;;;;;;29.27;22.58;;;;;;;8.53;42.85;101036.44;5023615;28;20464;-69
2021/03/10 11:20:58;;;;;;;30.05;21.35;;;;;;;8.63;42.87;101035.66;5023087;28;20064;-69